Time;durP1;ratioP1;P1;durP2;ratioP2;P2;SDS_P1;SDS_P2;PMS_P1;PMS_P2;Temp;Humidity;BMP_temperature;BMP_pressure;BME280_temperature;BME280_humidity;BME280_pressure;Samples;Min_cycle;Max_cycle;Signal;HPM_P1;HPM_P2
2023/03/03 00:02:19;;;;;;;;;;;2.70;99.90;;;;;;4862888;29;19935;-63
2023/03/03 00:04:44;;;;;;;;;;;2.60;99.90;;;;;;4879817;29;19928;-63
2023/03/03 00:07:10;;;;;;;;;;;2.60;99.90;;;;;;4863345;29;19927;-63
2023/03/03 00:09:36;;;;;;;;;;;2.70;99.90;;;;;;4879473;29;19930;-63
2023/03/03 00:12:10;;;;;;;;;;;2.60;99.90;;;;;;4863520;29;19928;-64
2023/03/03 00:14:35;;;;;;;;;;;2.60;99.90;;;;;;4879403;29;19928;-64
2023/03/03 00:17:11;;;;;;;;;;;2.60;99.90;;;;;;4879755;29;19928;-64
2023/03/03 00:19:37;;;;;;;;;;;2.60;99.90;;;;;;4879440;29;19934;-63
2023/03/03 00:22:11;;;;;;;;;;;2.50;99.90;;;;;;4879694;29;19951;-63
2023/03/03 00:24:36;;;;;;;;;;;2.60;99.90;;;;;;4879368;29;20016;-63
2023/03/03 00:27:14;;;;;;;;;;;2.40;99.90;;;;;;4848024;29;20329;-63
2023/03/03 00:29:44;;;;;;;;;;;2.40;99.90;;;;;;4862965;29;19928;-64
2023/03/03 00:32:16;;;;;;;;;;;2.40;99.90;;;;;;4879621;29;19998;-63
2023/03/03 00:34:42;;;;;;;;;;;2.40;99.90;;;;;;4879397;29;19955;-63
2023/03/03 00:37:31;;;;;;;;;;;2.60;99.90;;;;;;4859323;29;19932;-64
2023/03/03 00:39:58;;;;;;;;;;;2.40;99.90;;;;;;4860459;29;19935;-64
2023/03/03 00:42:26;;;;;;;;;;;2.30;99.90;;;;;;4860082;29;19952;-64
2023/03/03 00:44:57;;;;;;;;;;;2.30;99.90;;;;;;4860991;29;19985;-63
2023/03/03 00:47:24;;;;;;;;;;;2.20;99.90;;;;;;4859776;29;20469;-64
2023/03/03 00:49:50;;;;;;;;;;;2.20;99.90;;;;;;4860788;29;20022;-64
2023/03/03 00:52:17;;;;;;;;;;;2.10;99.90;;;;;;4859294;29;20431;-63
2023/03/03 00:54:42;;;;;;;;;;;2.10;99.90;;;;;;4859087;29;20404;-64
2023/03/03 00:57:08;;;;;;;;;;;2.30;99.90;;;;;;4860459;29;20007;-64
2023/03/03 00:59:34;;;;;;;;;;;1.80;99.90;;;;;;4860097;29;19928;-64
2023/03/03 01:01:59;;;;;;;;;;;1.80;99.90;;;;;;4860832;29;19935;-64
2023/03/03 01:04:25;;;;;;;;;;;1.60;99.90;;;;;;4860202;29;20010;-64
2023/03/03 01:06:51;;;;;;;;;;;1.60;99.90;;;;;;4859567;29;19928;-63
2023/03/03 01:09:16;;;;;;;;;;;1.60;99.90;;;;;;4860290;29;19971;-63
2023/03/03 01:11:42;;;;;;;;;;;1.60;99.90;;;;;;4860108;29;20039;-64
2023/03/03 01:14:07;;;;;;;;;;;1.50;99.90;;;;;;4859381;29;19932;-63
2023/03/03 01:16:33;;;;;;;;;;;1.50;99.90;;;;;;4859693;29;20043;-62
2023/03/03 01:18:59;;;;;;;;;;;1.50;99.90;;;;;;4860130;29;19929;-62
2023/03/03 01:21:24;;;;;;;;;;;1.30;99.90;;;;;;4860184;29;19928;-64
2023/03/03 01:23:50;;;;;;;;;;;1.30;99.90;;;;;;4859925;29;19932;-62
2023/03/03 01:26:15;;;;;;;;;;;1.30;99.90;;;;;;4858927;29;19935;-62
2023/03/03 01:28:41;;;;;;;;;;;1.30;99.90;;;;;;4859680;29;19935;-65
2023/03/03 01:31:06;;;;;;;;;;;1.20;99.90;;;;;;4859905;29;19935;-63
2023/03/03 01:33:33;;;;;;;;;;;1.20;99.90;;;;;;4859396;29;19975;-64
2023/03/03 01:35:59;;;;;;;;;;;1.20;99.90;;;;;;4865413;29;19936;-63
2023/03/03 01:38:24;;;;;;;;;;;0.60;99.90;;;;;;4878227;29;19935;-63
2023/03/03 01:40:55;;;;;;;;;;;1.20;99.90;;;;;;4877651;29;19928;-63
2023/03/03 01:43:20;;;;;;;;;;;1.10;99.90;;;;;;4878553;29;19946;-62
2023/03/03 01:45:46;;;;;;;;;;;1.20;99.90;;;;;;4878044;29;20001;-64
2023/03/03 01:48:17;;;;;;;;;;;1.10;99.90;;;;;;4878275;29;20019;-63
2023/03/03 01:50:50;;;;;;;;;;;1.20;99.90;;;;;;4877772;29;19934;-63
2023/03/03 01:53:18;;;;;;;;;;;1.20;99.90;;;;;;4878303;29;19927;-62
2023/03/03 01:55:45;;;;;;;;;;;1.20;99.90;;;;;;4877636;29;19927;-63
2023/03/03 01:58:33;;;;;;;;;;;1.10;99.90;;;;;;4877963;29;19928;-63
2023/03/03 02:01:04;;;;;;;;;;;1.10;99.90;;;;;;4846212;29;19939;-62
2023/03/03 02:03:29;;;;;;;;;;;1.10;99.90;;;;;;4878096;29;19934;-62
2023/03/03 02:05:57;;;;;;;;;;;1.00;99.90;;;;;;4877756;29;19953;-63
2023/03/03 02:08:26;;;;;;;;;;;1.00;99.90;;;;;;4878062;29;20361;-62
2023/03/03 02:10:52;;;;;;;;;;;0.90;99.90;;;;;;4861103;29;20010;-63
2023/03/03 02:13:17;;;;;;;;;;;0.90;99.90;;;;;;4845981;29;20401;-63
2023/03/03 02:15:43;;;;;;;;;;;0.90;99.90;;;;;;4861017;29;19935;-63
2023/03/03 02:18:13;;;;;;;;;;;0.80;99.90;;;;;;4878030;29;19976;-62
2023/03/03 02:21:02;;;;;;;;;;;0.80;99.90;;;;;;4877413;29;19983;-63
2023/03/03 02:23:28;;;;;;;;;;;0.80;99.90;;;;;;4878058;29;19939;-62
2023/03/03 02:25:56;;;;;;;;;;;0.70;99.90;;;;;;4877510;29;19931;-63
2023/03/03 02:28:23;;;;;;;;;;;0.70;99.90;;;;;;4878067;29;19928;-63
2023/03/03 02:30:49;;;;;;;;;;;0.70;99.90;;;;;;4877441;29;20351;-63
2023/03/03 02:33:14;;;;;;;;;;;0.70;99.90;;;;;;4877922;29;19928;-62
2023/03/03 02:35:40;;;;;;;;;;;0.70;99.90;;;;;;4877574;29;19935;-63
2023/03/03 02:38:26;;;;;;;;;;;0.60;99.90;;;;;;4877932;29;19928;-63
2023/03/03 02:40:57;;;;;;;;;;;0.70;99.90;;;;;;4876724;29;19935;-63
2023/03/03 02:43:25;;;;;;;;;;;0.60;99.90;;;;;;4878066;29;19935;-63
2023/03/03 02:45:51;;;;;;;;;;;0.70;99.90;;;;;;4861194;29;19928;-64
2023/03/03 02:48:16;;;;;;;;;;;0.80;99.90;;;;;;4877916;29;19935;-63
2023/03/03 02:50:42;;;;;;;;;;;0.60;99.90;;;;;;4877440;29;20401;-63
2023/03/03 02:53:08;;;;;;;;;;;1.30;99.90;;;;;;4877852;29;19938;-63
2023/03/03 02:55:33;;;;;;;;;;;1.80;99.90;;;;;;4861108;29;19934;-63
2023/03/03 02:57:59;;;;;;;;;;;0.70;99.90;;;;;;4845512;29;19924;-63
2023/03/03 03:00:24;;;;;;;;;;;0.70;99.90;;;;;;4877625;29;19928;-62
2023/03/03 03:02:50;;;;;;;;;;;0.60;99.90;;;;;;4877284;29;19934;-63
2023/03/03 03:05:15;;;;;;;;;;;0.70;99.90;;;;;;4877827;29;19928;-63
2023/03/03 03:07:41;;;;;;;;;;;0.70;99.90;;;;;;4877140;29;20406;-67
2023/03/03 03:10:07;;;;;;;;;;;0.70;99.90;;;;;;4878119;29;19935;-63
2023/03/03 03:12:32;;;;;;;;;;;0.70;99.90;;;;;;4880880;29;20027;-63
2023/03/03 03:14:58;;;;;;;;;;;0.70;99.90;;;;;;4863757;29;19939;-63
2023/03/03 03:17:23;;;;;;;;;;;0.70;99.90;;;;;;4881016;29;19927;-62
2023/03/03 03:19:49;;;;;;;;;;;0.70;99.90;;;;;;4880471;29;20415;-64
2023/03/03 03:22:15;;;;;;;;;;;0.70;99.90;;;;;;4880590;29;19928;-62
2023/03/03 03:24:40;;;;;;;;;;;0.70;99.90;;;;;;4848696;29;20059;-63
2023/03/03 03:27:06;;;;;;;;;;;0.70;99.90;;;;;;4880427;29;19928;-63
2023/03/03 03:29:32;;;;;;;;;;;0.70;99.90;;;;;;4880770;29;20400;-64
2023/03/03 03:31:57;;;;;;;;;;;0.80;99.90;;;;;;4880205;29;20038;-63
2023/03/03 03:34:23;;;;;;;;;;;1.10;99.90;;;;;;4863457;29;20007;-63
2023/03/03 03:36:48;;;;;;;;;;;0.70;99.90;;;;;;4831596;29;19985;-62
2023/03/03 03:39:14;;;;;;;;;;;0.70;99.90;;;;;;4879179;29;19975;-62
2023/03/03 03:41:40;;;;;;;;;;;0.70;99.90;;;;;;4880396;29;19928;-62
2023/03/03 03:44:06;;;;;;;;;;;0.70;99.90;;;;;;4879121;29;20006;-63
2023/03/03 03:46:31;;;;;;;;;;;0.70;99.90;;;;;;4880268;29;20014;-64
2023/03/03 03:48:57;;;;;;;;;;;0.60;99.90;;;;;;4880055;29;20296;-62
2023/03/03 03:51:22;;;;;;;;;;;0.60;99.90;;;;;;4880384;29;19932;-62
2023/03/03 03:53:48;;;;;;;;;;;0.70;99.90;;;;;;4880356;29;20296;-67
2023/03/03 03:56:13;;;;;;;;;;;0.60;99.90;;;;;;4848424;29;19931;-62
2023/03/03 03:58:42;;;;;;;;;;;0.60;99.90;;;;;;4863788;29;19928;-62
2023/03/03 04:01:08;;;;;;;;;;;0.60;99.90;;;;;;4878698;29;19954;-62
2023/03/03 04:03:34;;;;;;;;;;;0.70;99.90;;;;;;4863465;29;20329;-66
2023/03/03 04:05:59;;;;;;;;;;;0.60;99.90;;;;;;4879687;29;19928;-62
2023/03/03 04:08:25;;;;;;;;;;;0.60;99.90;;;;;;4879964;29;19928;-63
2023/03/03 04:10:50;;;;;;;;;;;0.50;99.90;;;;;;4879628;29;20229;-67
2023/03/03 04:13:16;;;;;;;;;;;0.50;99.90;;;;;;4863515;29;19928;-63
2023/03/03 04:15:41;;;;;;;;;;;0.50;99.90;;;;;;4879732;29;19927;-62
2023/03/03 04:18:07;;;;;;;;;;;0.50;99.90;;;;;;4879484;29;19932;-62
2023/03/03 04:20:33;;;;;;;;;;;0.50;99.90;;;;;;4879766;29;20292;-63
2023/03/03 04:22:58;;;;;;;;;;;0.50;99.90;;;;;;4878325;29;19935;-65
2023/03/03 04:25:24;;;;;;;;;;;0.50;99.90;;;;;;4878758;29;20249;-62
2023/03/03 04:27:51;;;;;;;;;;;0.50;99.90;;;;;;4863187;29;19935;-63
2023/03/03 04:30:17;;;;;;;;;;;0.50;99.90;;;;;;4879457;29;20018;-62
2023/03/03 04:32:43;;;;;;;;;;;0.60;99.90;;;;;;4879462;29;20092;-63
2023/03/03 04:35:09;;;;;;;;;;;0.50;99.90;;;;;;4879281;29;19935;-62
2023/03/03 04:37:35;;;;;;;;;;;0.40;99.90;;;;;;4879423;29;19934;-62
2023/03/03 04:40:01;;;;;;;;;;;0.50;99.90;;;;;;4879151;29;20248;-63
2023/03/03 04:42:27;;;;;;;;;;;0.50;99.90;;;;;;4862830;29;19928;-62
2023/03/03 04:44:52;;;;;;;;;;;0.70;99.90;;;;;;4863041;29;19934;-63
2023/03/03 04:47:18;;;;;;;;;;;0.80;99.90;;;;;;4878919;29;20014;-63
2023/03/03 04:49:43;;;;;;;;;;;0.80;99.90;;;;;;4879380;29;19932;-62
2023/03/03 04:52:09;;;;;;;;;;;0.50;99.90;;;;;;4862603;29;19992;-62
2023/03/03 04:54:35;;;;;;;;;;;0.40;99.90;;;;;;4879258;29;19934;-63
2023/03/03 04:57:00;;;;;;;;;;;0.40;99.90;;;;;;4862134;29;20018;-63
2023/03/03 04:59:26;;;;;;;;;;;0.40;99.90;;;;;;4862517;29;19928;-63
2023/03/03 05:01:51;;;;;;;;;;;0.40;99.90;;;;;;4862469;29;19934;-63
2023/03/03 05:04:17;;;;;;;;;;;0.40;99.90;;;;;;4878722;29;19935;-62
2023/03/03 05:06:43;;;;;;;;;;;0.40;99.90;;;;;;4878978;29;19971;-62
2023/03/03 05:09:09;;;;;;;;;;;0.70;99.90;;;;;;4862020;29;19928;-63
2023/03/03 05:11:34;;;;;;;;;;;0.50;99.90;;;;;;4878855;29;19939;-62
2023/03/03 05:14:01;;;;;;;;;;;0.50;99.90;;;;;;4861855;29;20132;-67
2023/03/03 05:16:27;;;;;;;;;;;0.50;99.90;;;;;;4878674;29;19935;-62
2023/03/03 05:18:53;;;;;;;;;;;0.40;99.90;;;;;;4878672;29;19939;-62
2023/03/03 05:21:18;;;;;;;;;;;0.50;99.90;;;;;;4877889;29;20484;-62
2023/03/03 05:23:44;;;;;;;;;;;0.40;99.90;;;;;;4846476;29;20022;-62
2023/03/03 05:26:10;;;;;;;;;;;0.50;99.90;;;;;;4877944;29;19928;-62
2023/03/03 05:28:35;;;;;;;;;;;0.40;99.90;;;;;;4878181;29;20283;-62
2023/03/03 05:31:01;;;;;;;;;;;0.40;99.90;;;;;;4846258;29;19935;-66
2023/03/03 05:33:26;;;;;;;;;;;0.50;99.90;;;;;;4877703;29;19938;-62
2023/03/03 05:35:52;;;;;;;;;;;0.40;99.90;;;;;;4846058;29;19928;-65
2023/03/03 05:38:20;;;;;;;;;;;0.60;99.90;;;;;;4876926;29;20332;-62
2023/03/03 05:40:46;;;;;;;;;;;0.40;99.90;;;;;;4877889;29;20404;-63
2023/03/03 05:43:11;;;;;;;;;;;0.50;99.90;;;;;;4877864;29;19979;-62
2023/03/03 05:45:37;;;;;;;;;;;0.40;99.90;;;;;;4878203;29;19928;-62
2023/03/03 05:48:03;;;;;;;;;;;0.40;99.90;;;;;;4877710;29;19928;-68
2023/03/03 05:50:29;;;;;;;;;;;0.40;99.90;;;;;;4878166;29;19971;-63
2023/03/03 05:52:55;;;;;;;;;;;0.50;99.90;;;;;;4878173;29;19990;-62
2023/03/03 05:55:20;;;;;;;;;;;0.40;99.90;;;;;;4877849;29;20054;-64
2023/03/03 05:57:46;;;;;;;;;;;0.40;99.90;;;;;;4878334;29;19935;-62
2023/03/03 06:00:12;;;;;;;;;;;0.40;99.90;;;;;;4877657;29;19928;-62
2023/03/03 06:02:38;;;;;;;;;;;0.40;99.90;;;;;;4876903;29;19983;-62
2023/03/03 06:05:04;;;;;;;;;;;0.40;99.90;;;;;;4878125;29;19979;-62
2023/03/03 06:07:29;;;;;;;;;;;0.40;99.90;;;;;;4861402;29;19950;-62
2023/03/03 06:09:55;;;;;;;;;;;0.40;99.90;;;;;;4877918;29;19928;-65
2023/03/03 06:12:21;;;;;;;;;;;0.30;99.90;;;;;;4877074;29;20388;-66
2023/03/03 06:14:46;;;;;;;;;;;0.40;99.90;;;;;;4877205;29;19935;-62
2023/03/03 06:17:12;;;;;;;;;;;0.40;99.90;;;;;;4860727;29;20422;-63
2023/03/03 06:19:37;;;;;;;;;;;0.40;99.90;;;;;;4877353;29;19939;-63
2023/03/03 06:22:03;;;;;;;;;;;0.40;99.90;;;;;;4860962;29;19928;-62
2023/03/03 06:24:30;;;;;;;;;;;0.40;99.90;;;;;;4860682;29;19923;-62
2023/03/03 06:26:56;;;;;;;;;;;0.40;99.90;;;;;;4877749;29;20022;-62
2023/03/03 06:29:22;;;;;;;;;;;0.70;99.90;;;;;;4877361;29;19935;-63
2023/03/03 06:31:47;;;;;;;;;;;0.40;99.90;;;;;;4876979;29;19931;-63
2023/03/03 06:34:13;;;;;;;;;;;0.40;99.90;;;;;;4877437;29;20440;-65
2023/03/03 06:36:38;;;;;;;;;;;0.40;99.90;;;;;;4861004;29;20053;-65
2023/03/03 06:39:04;;;;;;;;;;;0.40;99.90;;;;;;4876421;29;19995;-66
2023/03/03 06:41:30;;;;;;;;;;;0.40;99.90;;;;;;4875613;29;19931;-67
2023/03/03 06:43:56;;;;;;;;;;;0.50;99.90;;;;;;4877783;29;19927;-67
2023/03/03 06:46:22;;;;;;;;;;;0.60;99.90;;;;;;4879982;29;19979;-67
2023/03/03 06:48:47;;;;;;;;;;;0.70;99.90;;;;;;4864744;29;19985;-67
2023/03/03 06:51:33;;;;;;;;;;;0.70;99.90;;;;;;4849098;29;19928;-69
2023/03/03 06:54:09;;;;;;;;;;;0.80;99.90;;;;;;4864722;29;20233;-67
2023/03/03 06:56:36;;;;;;;;;;;0.80;99.90;;;;;;4863959;29;20524;-67
2023/03/03 06:59:02;;;;;;;;;;;0.90;99.90;;;;;;4881049;29;19975;-67
2023/03/03 07:01:32;;;;;;;;;;;0.90;99.90;;;;;;4863914;29;20304;-67
2023/03/03 07:03:58;;;;;;;;;;;0.90;99.90;;;;;;4849005;29;19931;-67
2023/03/03 07:06:25;;;;;;;;;;;1.00;99.90;;;;;;4880633;29;20107;-67
2023/03/03 07:08:51;;;;;;;;;;;1.10;99.90;;;;;;4879712;29;19979;-67
2023/03/03 07:11:18;;;;;;;;;;;1.00;99.90;;;;;;4864062;29;19928;-69
2023/03/03 07:13:51;;;;;;;;;;;1.10;99.90;;;;;;4881154;29;19963;-67
2023/03/03 07:16:18;;;;;;;;;;;1.30;99.90;;;;;;4864098;29;19999;-69
2023/03/03 07:18:51;;;;;;;;;;;1.40;99.90;;;;;;4864001;29;19935;-66
2023/03/03 07:21:31;;;;;;;;;;;1.80;99.90;;;;;;4863793;29;20121;-69
2023/03/03 07:23:58;;;;;;;;;;;2.30;99.90;;;;;;4879462;29;19932;-67
2023/03/03 07:26:29;;;;;;;;;;;2.60;99.90;;;;;;4863515;29;19971;-67
2023/03/03 07:28:57;;;;;;;;;;;2.80;99.90;;;;;;4880603;29;19932;-67
2023/03/03 07:31:28;;;;;;;;;;;2.70;99.90;;;;;;4863692;29;20038;-67
2023/03/03 07:33:54;;;;;;;;;;;2.60;99.90;;;;;;4863895;29;19971;-68
2023/03/03 07:36:26;;;;;;;;;;;2.50;99.90;;;;;;4879784;29;20375;-68
2023/03/03 07:38:53;;;;;;;;;;;2.40;99.90;;;;;;4880468;29;19928;-68
2023/03/03 07:41:19;;;;;;;;;;;2.40;99.90;;;;;;4863640;29;19928;-72
2023/03/03 07:43:54;;;;;;;;;;;2.50;99.90;;;;;;4880355;29;19935;-68
2023/03/03 07:46:40;;;;;;;;;;;2.30;99.90;;;;;;4863994;29;20269;-72
2023/03/03 07:49:20;;;;;;;;;;;2.30;99.90;;;;;;4863507;29;19935;-68
2023/03/03 07:51:46;;;;;;;;;;;2.30;99.90;;;;;;4863432;29;19928;-68
2023/03/03 07:54:32;;;;;;;;;;;2.40;99.90;;;;;;4879925;29;20296;-69
2023/03/03 07:57:10;;;;;;;;;;;2.30;99.90;;;;;;4872295;29;19954;-68
2023/03/03 07:59:37;;;;;;;;;;;2.30;99.90;;;;;;4847751;29;20063;-69
2023/03/03 08:02:05;;;;;;;;;;;2.40;99.90;;;;;;4847651;29;20303;-69
2023/03/03 08:04:38;;;;;;;;;;;2.50;99.90;;;;;;4879176;29;20273;-69
2023/03/03 08:07:10;;;;;;;;;;;2.50;99.90;;;;;;4847915;29;19967;-69
2023/03/03 08:09:36;;;;;;;;;;;2.60;99.90;;;;;;4863146;29;19957;-69
2023/03/03 08:12:20;;;;;;;;;;;2.60;99.90;;;;;;4863523;29;19934;-69
2023/03/03 08:14:45;;;;;;;;;;;2.60;99.90;;;;;;4862712;29;20363;-69
2023/03/03 08:17:22;;;;;;;;;;;2.80;99.90;;;;;;4848090;29;19935;-70
2023/03/03 08:19:48;;;;;;;;;;;2.60;99.90;;;;;;4847422;29;19932;-69
2023/03/03 08:22:16;;;;;;;;;;;2.60;99.90;;;;;;4863086;29;19927;-69
2023/03/03 08:24:41;;;;;;;;;;;2.70;99.90;;;;;;4863156;29;19932;-69
2023/03/03 08:27:07;;;;;;;;;;;2.70;99.90;;;;;;4863323;29;19939;-69
2023/03/03 08:29:33;;;;;;;;;;;2.80;99.90;;;;;;4862885;29;19928;-69
2023/03/03 08:31:58;;;;;;;;;;;2.90;99.90;;;;;;4863411;29;19967;-69
2023/03/03 08:34:24;;;;;;;;;;;2.90;99.90;;;;;;4863031;29;20362;-69
2023/03/03 08:36:49;;;;;;;;;;;2.90;99.90;;;;;;4874482;29;19928;-69
2023/03/03 08:39:15;;;;;;;;;;;3.00;99.90;;;;;;4859944;29;19928;-70
2023/03/03 08:41:43;;;;;;;;;;;2.80;99.90;;;;;;4844012;29;19975;-70
2023/03/03 08:44:11;;;;;;;;;;;3.00;99.90;;;;;;4859825;29;19985;-69
2023/03/03 08:46:37;;;;;;;;;;;3.10;99.90;;;;;;4859379;29;19951;-70
2023/03/03 08:49:03;;;;;;;;;;;3.20;99.90;;;;;;4859715;29;20365;-70
2023/03/03 08:51:28;;;;;;;;;;;3.20;99.90;;;;;;4860648;29;20372;-70
2023/03/03 08:53:54;;;;;;;;;;;3.20;99.90;;;;;;4844031;29;19936;-69
2023/03/03 08:56:20;;;;;;;;;;;3.30;99.90;;;;;;4859696;29;19996;-70
2023/03/03 08:58:46;;;;;;;;;;;3.40;99.90;;;;;;4859188;29;19928;-69
2023/03/03 09:01:14;;;;;;;;;;;3.50;99.90;;;;;;4859310;29;20054;-69
2023/03/03 09:03:40;;;;;;;;;;;3.50;99.90;;;;;;4859261;29;19995;-69
2023/03/03 09:06:05;;;;;;;;;;;3.60;99.90;;;;;;4859464;29;20428;-69
2023/03/03 09:08:31;;;;;;;;;;;3.60;99.90;;;;;;4858578;29;19928;-69
2023/03/03 09:10:57;;;;;;;;;;;3.70;99.90;;;;;;4859014;29;20353;-69
2023/03/03 09:13:22;;;;;;;;;;;3.80;99.90;;;;;;4859419;29;20411;-69
2023/03/03 09:15:49;;;;;;;;;;;3.80;99.90;;;;;;4858618;29;19932;-69
2023/03/03 09:18:19;;;;;;;;;;;3.90;99.90;;;;;;4874641;29;19928;-69
2023/03/03 09:20:49;;;;;;;;;;;4.10;99.90;;;;;;4858540;29;19979;-70
2023/03/03 09:23:35;;;;;;;;;;;4.10;99.90;;;;;;4858954;29;20052;-69
2023/03/03 09:26:20;;;;;;;;;;;4.30;99.90;;;;;;4858929;29;19955;-70
2023/03/03 09:28:45;;;;;;;;;;;4.40;99.90;;;;;;4858747;29;20360;-70
2023/03/03 09:31:40;;;;;;;;;;;4.60;99.90;;;;;;4858605;29;20064;-68
2023/03/03 09:34:20;;;;;;;;;;;4.80;99.90;;;;;;4873539;29;20396;-68
2023/03/03 09:36:46;;;;;;;;;;;5.10;99.90;;;;;;4873865;29;19956;-68
2023/03/03 09:39:24;;;;;;;;;;;5.20;99.90;;;;;;4859953;29;20404;-68
2023/03/03 09:41:56;;;;;;;;;;;5.30;99.90;;;;;;4858283;29;19935;-68
2023/03/03 09:44:31;;;;;;;;;;;5.30;99.90;;;;;;4858643;29;19932;-68
2023/03/03 09:47:29;;;;;;;;;;;5.30;99.90;;;;;;4843202;29;19968;-68
2023/03/03 09:49:57;;;;;;;;;;;5.40;99.90;;;;;;4873176;29;19939;-68
2023/03/03 09:52:26;;;;;;;;;;;5.40;99.90;;;;;;4858683;29;19928;-68
2023/03/03 09:54:55;;;;;;;;;;;5.50;99.90;;;;;;4858438;29;20325;-69
2023/03/03 09:57:28;;;;;;;;;;;5.40;99.90;;;;;;4873962;29;19935;-68
2023/03/03 10:00:00;;;;;;;;;;;5.50;99.90;;;;;;4858193;29;20307;-69
2023/03/03 10:02:35;;;;;;;;;;;5.50;99.90;;;;;;4858768;29;20014;-69
2023/03/03 10:05:14;;;;;;;;;;;5.60;99.90;;;;;;4842866;29;19928;-69
2023/03/03 10:07:48;;;;;;;;;;;5.60;99.90;;;;;;4859651;29;19928;-72
2023/03/03 10:10:14;;;;;;;;;;;5.60;99.90;;;;;;4858442;29;19928;-69
2023/03/03 10:12:54;;;;;;;;;;;5.60;99.90;;;;;;4858609;29;19935;-73
2023/03/03 10:15:32;;;;;;;;;;;5.70;99.90;;;;;;4859410;29;19980;-69
2023/03/03 10:18:03;;;;;;;;;;;5.90;99.90;;;;;;4842842;29;20376;-69
2023/03/03 10:20:46;;;;;;;;;;;5.70;99.90;;;;;;4861460;29;19936;-68
2023/03/03 10:23:22;;;;;;;;;;;5.80;99.90;;;;;;4862202;29;19928;-69
2023/03/03 10:26:07;;;;;;;;;;;5.90;99.90;;;;;;4861948;29;19939;-68
2023/03/03 10:28:32;;;;;;;;;;;5.90;99.90;;;;;;4862123;29;20372;-68
2023/03/03 10:31:05;;;;;;;;;;;5.90;99.90;;;;;;4846573;29;19957;-69
2023/03/03 10:33:48;;;;;;;;;;;6.10;99.90;;;;;;4862215;29;19928;-69
2023/03/03 10:36:17;;;;;;;;;;;6.10;99.90;;;;;;4862197;29;19935;-68
2023/03/03 10:38:42;;;;;;;;;;;6.20;99.90;;;;;;4861801;29;20015;-69
2023/03/03 10:41:20;;;;;;;;;;;6.30;99.90;;;;;;4861595;29;20051;-68
2023/03/03 10:43:52;;;;;;;;;;;6.40;99.90;;;;;;4861683;29;19936;-71
2023/03/03 10:46:23;;;;;;;;;;;6.40;99.90;;;;;;4861608;29;19932;-69
2023/03/03 10:48:55;;;;;;;;;;;6.50;99.90;;;;;;4861561;29;20031;-68
2023/03/03 10:51:32;;;;;;;;;;;6.50;99.90;;;;;;4861844;29;20110;-68
2023/03/03 10:54:04;;;;;;;;;;;6.60;99.90;;;;;;4862526;29;19936;-68
2023/03/03 10:56:44;;;;;;;;;;;6.70;99.90;;;;;;4862730;29;19935;-69
2023/03/03 10:59:24;;;;;;;;;;;6.70;99.90;;;;;;4862356;29;19988;-68
2023/03/03 11:02:08;;;;;;;;;;;6.80;99.90;;;;;;4861196;29;19928;-68
2023/03/03 11:04:53;;;;;;;;;;;6.80;99.90;;;;;;4877309;29;19928;-68
2023/03/03 11:07:18;;;;;;;;;;;6.90;99.90;;;;;;4861649;29;19928;-68
2023/03/03 11:10:02;;;;;;;;;;;7.00;99.90;;;;;;4861747;29;19935;-68
2023/03/03 11:12:46;;;;;;;;;;;7.10;99.90;;;;;;4861508;29;19928;-68
2023/03/03 11:15:21;;;;;;;;;;;7.10;99.90;;;;;;4862154;29;19928;-68
2023/03/03 11:18:05;;;;;;;;;;;7.00;99.90;;;;;;4861445;29;20389;-68
2023/03/03 11:20:37;;;;;;;;;;;7.00;99.90;;;;;;4861115;29;19928;-68
2023/03/03 11:23:02;;;;;;;;;;;7.10;99.90;;;;;;4861059;29;19928;-68
2023/03/03 11:25:33;;;;;;;;;;;7.10;99.90;;;;;;4861170;29;19934;-68
2023/03/03 11:28:04;;;;;;;;;;;7.10;99.90;;;;;;4861997;29;20291;-68
2023/03/03 11:30:38;;;;;;;;;;;7.20;99.90;;;;;;4876332;29;19934;-70
2023/03/03 11:33:24;;;;;;;;;;;7.20;99.90;;;;;;4860156;29;20411;-68
2023/03/03 11:35:52;;;;;;;;;;;7.20;99.90;;;;;;4875907;29;19957;-68
2023/03/03 11:38:33;;;;;;;;;;;7.30;99.90;;;;;;4860870;29;19955;-69
2023/03/03 11:41:07;;;;;;;;;;;7.20;99.90;;;;;;4860646;29;19928;-68
2023/03/03 11:43:51;;;;;;;;;;;7.20;99.90;;;;;;4876516;29;20032;-69
2023/03/03 11:46:18;;;;;;;;;;;7.20;99.90;;;;;;4860874;29;20023;-68
2023/03/03 11:48:55;;;;;;;;;;;7.30;99.90;;;;;;4861762;29;20369;-67
2023/03/03 11:51:40;;;;;;;;;;;7.40;99.90;;;;;;4862031;29;19996;-68
2023/03/03 11:54:09;;;;;;;;;;;7.50;99.90;;;;;;4860750;29;19928;-68
2023/03/03 11:56:39;;;;;;;;;;;7.60;99.90;;;;;;4860775;29;20317;-68
2023/03/03 11:59:05;;;;;;;;;;;7.60;99.90;;;;;;4860435;29;19989;-68
2023/03/03 12:01:39;;;;;;;;;;;7.60;99.90;;;;;;4860436;29;19932;-69
2023/03/03 12:04:08;;;;;;;;;;;7.70;99.90;;;;;;4860537;29;19936;-68
2023/03/03 12:06:46;;;;;;;;;;;7.70;99.90;;;;;;4860662;29;19928;-69
2023/03/03 12:09:47;;;;;;;;;;;7.70;99.90;;;;;;4845171;29;19928;-69
2023/03/03 12:12:27;;;;;;;;;;;7.80;99.90;;;;;;4843460;29;19980;-69
2023/03/03 12:14:53;;;;;;;;;;;7.80;99.90;;;;;;4860446;29;19928;-69
2023/03/03 12:17:25;;;;;;;;;;;7.80;99.90;;;;;;4860255;29;19928;-69
2023/03/03 12:20:09;;;;;;;;;;;7.70;99.90;;;;;;4860207;29;19935;-69
2023/03/03 12:22:53;;;;;;;;;;;7.70;99.90;;;;;;4860551;29;19932;-68
2023/03/03 12:25:19;;;;;;;;;;;7.80;99.90;;;;;;4861049;29;20245;-68
2023/03/03 12:27:54;;;;;;;;;;;7.80;99.90;;;;;;4860496;29;19928;-68
2023/03/03 12:30:26;;;;;;;;;;;7.90;99.90;;;;;;4861164;29;20068;-68
2023/03/03 12:33:00;;;;;;;;;;;7.90;99.90;;;;;;4860274;29;19928;-67
2023/03/03 12:35:26;;;;;;;;;;;7.90;99.90;;;;;;4860077;29;20296;-67
2023/03/03 12:38:18;;;;;;;;;;;7.90;99.90;;;;;;4859742;29;19932;-67
2023/03/03 12:40:50;;;;;;;;;;;7.90;99.90;;;;;;4875283;29;19928;-68
2023/03/03 12:43:22;;;;;;;;;;;7.90;99.90;;;;;;4858701;29;19932;-68
2023/03/03 12:46:06;;;;;;;;;;;7.90;99.90;;;;;;4860011;29;19932;-67
2023/03/03 12:48:39;;;;;;;;;;;7.90;99.90;;;;;;4859971;29;19988;-68
2023/03/03 12:51:23;;;;;;;;;;;7.90;99.90;;;;;;4874868;29;19940;-68
2023/03/03 12:53:58;;;;;;;;;;;8.00;99.90;;;;;;4859736;29;20352;-68
2023/03/03 12:56:27;;;;;;;;;;;8.10;99.90;;;;;;4859559;29;19928;-68
2023/03/03 12:58:56;;;;;;;;;;;8.10;99.90;;;;;;4860669;29;19928;-69
2023/03/03 13:01:21;;;;;;;;;;;8.20;99.90;;;;;;4859113;29;20024;-68
2023/03/03 13:04:00;;;;;;;;;;;8.20;99.90;;;;;;4859336;29;20246;-68
2023/03/03 13:06:38;;;;;;;;;;;8.20;99.90;;;;;;4874783;29;19935;-68
2023/03/03 13:09:22;;;;;;;;;;;8.20;99.90;;;;;;4843820;29;20007;-70
2023/03/03 13:12:11;;;;;;;;;;;8.20;99.90;;;;;;4859753;29;19932;-69
2023/03/03 13:14:39;;;;;;;;;;;8.20;99.90;;;;;;4860776;29;20031;-68
2023/03/03 13:17:21;;;;;;;;;;;8.20;99.90;;;;;;4859219;29;19928;-69
2023/03/03 13:20:00;;;;;;;;;;;8.10;99.90;;;;;;4859500;29;19928;-68
2023/03/03 13:22:41;;;;;;;;;;;8.10;99.90;;;;;;4874581;29;20345;-68
2023/03/03 13:25:25;;;;;;;;;;;8.10;99.90;;;;;;4859095;29;19930;-69
2023/03/03 13:27:54;;;;;;;;;;;8.00;99.90;;;;;;4874537;29;19928;-69
2023/03/03 13:30:26;;;;;;;;;;;8.00;99.90;;;;;;4874665;29;19928;-68
2023/03/03 13:32:55;;;;;;;;;;;8.00;99.90;;;;;;4859236;29;19928;-68
2023/03/03 13:35:40;;;;;;;;;;;7.90;99.90;;;;;;4859710;29;20395;-68
2023/03/03 13:38:09;;;;;;;;;;;7.90;99.90;;;;;;4858676;29;19928;-69
2023/03/03 13:40:57;;;;;;;;;;;7.90;99.90;;;;;;4859189;29;19950;-68
2023/03/03 13:43:25;;;;;;;;;;;7.90;99.90;;;;;;4873886;29;20081;-69
2023/03/03 13:46:12;;;;;;;;;;;7.80;99.90;;;;;;4860128;29;19924;-68
2023/03/03 13:49:01;;;;;;;;;;;7.80;99.90;;;;;;4858892;29;19948;-68
2023/03/03 13:51:59;;;;;;;;;;;7.80;99.90;;;;;;4873665;29;19979;-68
2023/03/03 13:54:27;;;;;;;;;;;7.80;99.90;;;;;;4857961;29;19976;-68
2023/03/03 13:57:18;;;;;;;;;;;7.80;99.90;;;;;;4859216;29;20019;-67
2023/03/03 13:59:44;;;;;;;;;;;7.80;99.90;;;;;;4874335;29;20002;-68
2023/03/03 14:02:15;;;;;;;;;;;7.70;99.90;;;;;;4858937;29;19977;-69
2023/03/03 14:04:59;;;;;;;;;;;7.70;99.90;;;;;;4859089;29;19928;-69
2023/03/03 14:07:37;;;;;;;;;;;7.70;99.90;;;;;;4859779;29;19979;-69
2023/03/03 14:10:17;;;;;;;;;;;7.70;99.90;;;;;;4858998;29;19983;-69
2023/03/03 14:12:55;;;;;;;;;;;7.70;99.90;;;;;;4860055;29;19928;-69
2023/03/03 14:15:23;;;;;;;;;;;7.70;99.90;;;;;;4843380;29;20035;-67
2023/03/03 14:17:56;;;;;;;;;;;7.70;99.90;;;;;;4858707;29;19975;-68
2023/03/03 14:20:25;;;;;;;;;;;7.70;99.90;;;;;;4859360;29;19975;-68
2023/03/03 14:22:53;;;;;;;;;;;7.70;99.90;;;;;;4858839;29;19928;-68
2023/03/03 14:25:19;;;;;;;;;;;7.60;99.90;;;;;;4859591;29;19924;-68
2023/03/03 14:27:47;;;;;;;;;;;7.60;99.90;;;;;;4858615;29;20432;-68
2023/03/03 14:30:25;;;;;;;;;;;7.60;99.90;;;;;;4858607;29;19932;-68
2023/03/03 14:32:57;;;;;;;;;;;7.70;99.90;;;;;;4858543;29;20122;-68
2023/03/03 14:35:24;;;;;;;;;;;7.60;99.90;;;;;;4858361;29;19957;-68
2023/03/03 14:37:50;;;;;;;;;;;7.60;99.90;;;;;;4858155;29;19975;-68
2023/03/03 14:40:20;;;;;;;;;;;7.60;99.90;;;;;;4858626;29;19990;-69
2023/03/03 14:42:47;;;;;;;;;;;7.60;99.90;;;;;;4874145;29;19928;-68
2023/03/03 14:45:30;;;;;;;;;;;7.60;99.90;;;;;;4858708;29;19934;-68
2023/03/03 14:47:57;;;;;;;;;;;7.60;99.90;;;;;;4859587;29;19935;-68
2023/03/03 14:50:30;;;;;;;;;;;7.50;99.90;;;;;;4859290;29;19929;-68